Map

Track Data

SID SEASON NUMBER BASIN SUBBASIN NAME ISO_TIME NATURE LAT LON WMO_WIND WMO_PRES WMO_AGENCY TRACK_TYPE DIST2LAND LANDFALL IFLAG USA_AGENCY USA_ATCF_ID USA_LAT USA_LON USA_RECORD USA_STATUS USA_WIND USA_PRES USA_SSHS USA_R34_NE USA_R34_SE USA_R34_SW USA_R34_NW USA_R50_NE USA_R50_SE USA_R50_SW USA_R50_NW USA_R64_NE USA_R64_SE USA_R64_SW USA_R64_NW USA_POCI USA_ROCI USA_RMW USA_EYE TOKYO_LAT TOKYO_LON TOKYO_GRADE TOKYO_WIND TOKYO_PRES TOKYO_R50_DIR TOKYO_R50_LONG TOKYO_R50_SHORT TOKYO_R30_DIR TOKYO_R30_LONG TOKYO_R30_SHORT TOKYO_LAND CMA_LAT CMA_LON CMA_CAT CMA_WIND CMA_PRES HKO_LAT HKO_LON HKO_CAT HKO_WIND HKO_PRES NEWDELHI_LAT NEWDELHI_LON NEWDELHI_GRADE NEWDELHI_WIND NEWDELHI_PRES NEWDELHI_CI NEWDELHI_DP NEWDELHI_POCI REUNION_LAT REUNION_LON REUNION_TYPE REUNION_WIND REUNION_PRES REUNION_TNUM REUNION_CI REUNION_RMW REUNION_R34_NE REUNION_R34_SE REUNION_R34_SW REUNION_R34_NW REUNION_R50_NE REUNION_R50_SE REUNION_R50_SW REUNION_R50_NW REUNION_R64_NE REUNION_R64_SE REUNION_R64_SW REUNION_R64_NW BOM_LAT BOM_LON BOM_TYPE BOM_WIND BOM_PRES BOM_TNUM BOM_CI BOM_RMW BOM_R34_NE BOM_R34_SE BOM_R34_SW BOM_R34_NW BOM_R50_NE BOM_R50_SE BOM_R50_SW BOM_R50_NW BOM_R64_NE BOM_R64_SE BOM_R64_SW BOM_R64_NW BOM_ROCI BOM_POCI BOM_EYE BOM_POS_METHOD BOM_PRES_METHOD NADI_LAT NADI_LON NADI_CAT NADI_WIND NADI_PRES WELLINGTON_LAT WELLINGTON_LON WELLINGTON_WIND WELLINGTON_PRES DS824_LAT DS824_LON DS824_STAGE DS824_WIND DS824_PRES TD9636_LAT TD9636_LON TD9636_STAGE TD9636_WIND TD9636_PRES TD9635_LAT TD9635_LON TD9635_WIND TD9635_PRES TD9635_ROCI NEUMANN_LAT NEUMANN_LON NEUMANN_CLASS NEUMANN_WIND NEUMANN_PRES MLC_LAT MLC_LON MLC_CLASS MLC_WIND MLC_PRES USA_GUST BOM_GUST BOM_GUST_PER REUNION_GUST REUNION_GUST_PER USA_SEAHGT USA_SEARAD_NE USA_SEARAD_SE USA_SEARAD_SW USA_SEARAD_NW STORM_SPEED STORM_DIR
1910307N09083 1910 50 NI BB NOT_NAMED 1910-11-03 00:00:00 TS 9.40000 82.6000 main 172 172 _________O____ -1 9.40000 82.6000 TC 34 4 54
1910307N09083 1910 50 NI BB NOT_NAMED 1910-11-03 03:00:00 TS 9.52503 82.7733 main 197 197 _________PO___ -1 9.58755 82.8600 TC 36 9.40000 82.6000 2 5 50
1910307N09083 1910 50 NI BB NOT_NAMED 1910-11-03 06:00:00 TS 9.72628 82.9887 main 227 227 _________OP___ -1 9.80000 83.1000 TC 39 9.61571 82.8218 2 6 44
1910307N09083 1910 50 NI BB NOT_NAMED 1910-11-03 09:00:00 TS 9.95788 83.1950 main 263 263 _________PP___ -1 10.0500 83.3075 TC 42 9.83508 83.0449 2 6 41
1910307N09083 1910 50 NI BB NOT_NAMED 1910-11-03 12:00:00 TS 10.1810 83.3853 main 294 294 _________OP___ -1 10.3000 83.5000 TC 45 10.0619 83.2706 2 6 42
1910307N09083 1910 50 NI BB NOT_NAMED 1910-11-03 15:00:00 TS 10.4000 83.6000 main 325 325 _________PO___ -1 10.5000 83.7001 TC 45 10.3000 83.5000 3 6 44
1910307N09083 1910 50 NI BB NOT_NAMED 1910-11-03 18:00:00 TS 10.6247 83.8157 main 355 355 _________OP___ -1 10.7000 83.9000 TC 45 10.5494 83.7315 3 7 42
1910307N09083 1910 50 NI BB NOT_NAMED 1910-11-03 21:00:00 TS 10.8838 84.0374 main 393 393 _________PP___ -1 10.9725 84.1224 TC 45 10.7950 83.9523 3 6 40
1910307N09083 1910 50 NI BB NOT_NAMED 1910-11-04 00:00:00 TS 11.1091 84.2235 main 423 423 _________OP___ -1 11.2000 84.3000 TC 45 11.0182 84.1471 3 5 40
1910307N09083 1910 50 NI BB NOT_NAMED 1910-11-04 03:00:00 TS 11.2362 84.3363 main 438 438 _________PO___ -1 11.2725 84.3726 TC 45 11.2000 84.3000 3 3 42
1910307N09083 1910 50 NI BB NOT_NAMED 1910-11-04 06:00:00 TS 11.3050 84.3987 main 453 453 _________OP___ -1 11.3000 84.4000 TC 45 11.3099 84.3974 3 2 36
1910307N09083 1910 50 NI BB NOT_NAMED 1910-11-04 09:00:00 TS 11.3862 84.4514 main 468 468 _________PP___ -1 11.3925 84.4500 TC 45 11.3799 84.4527 3 2 29
1910307N09083 1910 50 NI BB NOT_NAMED 1910-11-04 12:00:00 TS 11.4675 84.4908 main 474 474 _________OP___ -1 11.5000 84.5000 TC 45 11.4349 84.4817 3 2 25
1910307N09083 1910 50 NI BB NOT_NAMED 1910-11-04 15:00:00 TS 11.5463 84.5287 main 474 474 _________PO___ -1 11.5925 84.5575 TC 45 11.5000 84.5000 3 2 32
1910307N09083 1910 50 NI BB NOT_NAMED 1910-11-04 18:00:00 TS 11.6349 84.5964 main 489 487 _________OP___ -1 11.7000 84.6000 TC 45 11.5699 84.5927 3 2 34
1910307N09083 1910 50 NI BB NOT_NAMED 1910-11-04 21:00:00 TS 11.7324 84.6571 main 497 483 _________PP___ -1 11.8050 84.6449 TC 45 11.6598 84.6692 3 3 9
1910307N09083 1910 50 NI BB NOT_NAMED 1910-11-05 00:00:00 TS 11.8974 84.6431 main 483 468 _________OP___ -1 12.0000 84.6000 TC 45 11.7948 84.6862 3 5 342
1910307N09083 1910 50 NI BB NOT_NAMED 1910-11-05 03:00:00 TS 12.1850 84.5087 main 468 442 _________PO___ -1 12.3699 84.4175 TC 45 12.0000 84.6000 3 8 330
1910307N09083 1910 50 NI BB NOT_NAMED 1910-11-05 06:00:00 TS 12.5576 84.2453 main 430 392 _________OP___ -1 12.8000 84.1000 TC 45 12.3152 84.3905 3 10 321
1910307N09083 1910 50 NI BB NOT_NAMED 1910-11-05 09:00:00 TS 12.9274 83.8838 main 392 346 _________PP___ -1 13.1575 83.6949 TC 45 12.6973 84.0727 3 11 313
1910307N09083 1910 50 NI BB NOT_NAMED 1910-11-05 12:00:00 TS 13.3029 83.4343 main 335 291 _________OP___ -1 13.5000 83.2000 TC 45 13.1057 83.6685 3 12 309
1910307N09083 1910 50 NI BB NOT_NAMED 1910-11-05 15:00:00 TS 13.6825 82.9325 main 281 237 _________PO___ -1 13.8650 82.6650 TC 41 13.5000 83.2000 3 12 306
1910307N09083 1910 50 NI BB NOT_NAMED 1910-11-05 18:00:00 TS 13.9993 82.4357 main 227 181 _________OP___ -1 14.2000 82.1000 TC 37 13.8487 82.6875 3 12 301
1910307N09083 1910 50 NI BB NOT_NAMED 1910-11-05 21:00:00 TS 14.2817 81.9040 main 181 129 _________PP___ -1 14.4702 81.5451 TC 33 14.1561 82.1432 3 11 297
1910307N09083 1910 50 NI BB NOT_NAMED 1910-11-06 00:00:00 TS 14.5236 81.3849 main 129 86 _________OP___ -1 14.7000 81.0000 TC 30 14.4355 81.5773 3 10 296
1910307N09083 1910 50 NI BB NOT_NAMED 1910-11-06 03:00:00 NR 14.7000 81.0000 main 86 __________O___ -1 TC 14.7000 81.0000 1 8 295

About IBTrACS Database

This database is a web-friendly format of International Best Track Archive for Climate Stewardship (IBTrACS), a global best track data archive curated by NOAA dating back to 1842.

Updated: 2021-12-01